Aérodrome :
LOGIN :

S'inscrire | Disclaimer

   EN    FR    IT 

 










Légende :    VFR   VFR Marginal   IFR   IFR Intensif   IFR Très Intensif
Visi : 
Plafond : 
>= 8 km
>= 3000ft
5 à 8 km
1000 à 3000 ft
1500m à 5 km
500 à 1000 ft
800 à 1500m
200 à 500 ft
< 800m
< 200 ft
Symboles :   Orages  Brouillard  Fortes neiges  Fortes précipitations  Vent > 20 kt
SIGMETs :   Divers  Orages  Givrage  Turbulence  Onde Orograph.  Cendres Volcan.






- Altitude de l'aérodrome : 465 ft
- Code IATA : OMR


LROD - Oradea International

DERNIER METAR :
  • 191500Z 00000KT 6000 OVC046 M00/M00 Q1031

METARs EXPIRÉS :
  • 191430Z 05001KT 6000 OVC045 M00/M00 Q1030
  • 191400Z 05002KT 5000 BR FEW009 OVC045 00/00 Q1030
  • 191330Z 07002KT 5000 BR OVC043 00/00 Q1030
  • 191300Z 04003KT 5000 BR BKN042 00/00 Q1029
  • 191230Z 03003KT 5000 BR BKN042 M00/M00 Q1029

TAF TAF LROD
Valide du 19 à 15h jusqu'au 20 à 00h UTC


191400Z 1915/1924 VRB04KT 5000 BR OVC040
TEMPO 1915/1918 9999 NSW



MET'MAP, la Météo Aéronautique d'un coup d'oeil ! - Copyright ORBIFLY Décembre 2007 - Disclaimer

ORBIFLY MET'MAP TEAM :

Programmation & Développement : Alexandra Zaïnal
Sur une idée originale de : Baudouin d'Aumeries
Assistance à la programmation : Marc-Olivier Méhu
Soutien technique & logistique : Manuel Goepfert

Contact : metmap@orbifly.com




SOURCES & CREDITS :

   NOAA